sensor_id;sensor_type;location;lat;lon;timestamp;temperature;humidity
24384;DHT22;12504;52.870;8.798;2022-12-13T00:01:33;-6.60;99.90
24384;DHT22;12504;52.870;8.798;2022-12-13T00:04:01;-6.60;99.90
24384;DHT22;12504;52.870;8.798;2022-12-13T00:06:28;-6.60;99.90
24384;DHT22;12504;52.870;8.798;2022-12-13T00:08:56;-6.60;99.90
24384;DHT22;12504;52.870;8.798;2022-12-13T00:11:23;-6.60;99.90
24384;DHT22;12504;52.870;8.798;2022-12-13T00:13:48;-6.60;99.90
24384;DHT22;12504;52.870;8.798;2022-12-13T00:16:16;-6.50;99.90
24384;DHT22;12504;52.870;8.798;2022-12-13T00:18:48;-6.50;99.90
24384;DHT22;12504;52.870;8.798;2022-12-13T00:21:17;-6.50;99.90
24384;DHT22;12504;52.870;8.798;2022-12-13T00:23:45;-6.50;99.90
24384;DHT22;12504;52.870;8.798;2022-12-13T00:26:14;-6.40;99.90
24384;DHT22;12504;52.870;8.798;2022-12-13T00:28:41;-6.40;99.90
24384;DHT22;12504;52.870;8.798;2022-12-13T00:31:07;-6.40;99.90
24384;DHT22;12504;52.870;8.798;2022-12-13T00:33:33;-6.40;99.90
24384;DHT22;12504;52.870;8.798;2022-12-13T00:36:02;-6.30;99.90
24384;DHT22;12504;52.870;8.798;2022-12-13T00:38:28;-6.30;99.90
24384;DHT22;12504;52.870;8.798;2022-12-13T00:40:54;-6.30;99.90
24384;DHT22;12504;52.870;8.798;2022-12-13T00:43:19;-6.30;99.90
24384;DHT22;12504;52.870;8.798;2022-12-13T00:45:45;-6.30;99.90
24384;DHT22;12504;52.870;8.798;2022-12-13T00:48:11;-6.40;99.90
24384;DHT22;12504;52.870;8.798;2022-12-13T00:50:37;-6.50;99.90
24384;DHT22;12504;52.870;8.798;2022-12-13T00:53:03;-6.50;99.90
24384;DHT22;12504;52.870;8.798;2022-12-13T00:55:28;-6.40;99.90
24384;DHT22;12504;52.870;8.798;2022-12-13T00:57:54;-6.40;99.90
24384;DHT22;12504;52.870;8.798;2022-12-13T01:00:20;-6.50;99.90
24384;DHT22;12504;52.870;8.798;2022-12-13T01:02:46;-6.60;99.90
24384;DHT22;12504;52.870;8.798;2022-12-13T01:05:12;-6.60;99.90
24384;DHT22;12504;52.870;8.798;2022-12-13T01:07:39;-6.60;99.90
24384;DHT22;12504;52.870;8.798;2022-12-13T01:10:06;-6.60;99.90
24384;DHT22;12504;52.870;8.798;2022-12-13T01:12:33;-6.60;99.90
24384;DHT22;12504;52.870;8.798;2022-12-13T01:14:59;-6.70;99.90
24384;DHT22;12504;52.870;8.798;2022-12-13T01:17:25;-6.70;99.90
24384;DHT22;12504;52.870;8.798;2022-12-13T01:19:51;-6.70;99.90
24384;DHT22;12504;52.870;8.798;2022-12-13T01:22:17;-6.70;99.90
24384;DHT22;12504;52.870;8.798;2022-12-13T01:24:43;-6.70;99.90
24384;DHT22;12504;52.870;8.798;2022-12-13T01:27:08;-6.70;99.90
24384;DHT22;12504;52.870;8.798;2022-12-13T01:29:34;-6.70;99.90
24384;DHT22;12504;52.870;8.798;2022-12-13T01:32:00;-6.70;99.90
24384;DHT22;12504;52.870;8.798;2022-12-13T01:34:25;-6.70;99.90
24384;DHT22;12504;52.870;8.798;2022-12-13T01:36:55;-6.70;99.90
24384;DHT22;12504;52.870;8.798;2022-12-13T01:39:21;-6.70;99.90
24384;DHT22;12504;52.870;8.798;2022-12-13T01:41:50;-6.70;99.90
24384;DHT22;12504;52.870;8.798;2022-12-13T01:50:05;-6.80;99.90
24384;DHT22;12504;52.870;8.798;2022-12-13T01:52:33;-6.90;99.90
24384;DHT22;12504;52.870;8.798;2022-12-13T01:55:00;-7.00;99.90
24384;DHT22;12504;52.870;8.798;2022-12-13T01:57:33;-7.00;99.90
24384;DHT22;12504;52.870;8.798;2022-12-13T01:59:59;-6.80;99.90
24384;DHT22;12504;52.870;8.798;2022-12-13T02:02:26;-6.80;99.90
24384;DHT22;12504;52.870;8.798;2022-12-13T02:04:56;-6.80;99.90
24384;DHT22;12504;52.870;8.798;2022-12-13T02:07:25;-6.80;99.90
24384;DHT22;12504;52.870;8.798;2022-12-13T02:09:55;-6.90;99.90
24384;DHT22;12504;52.870;8.798;2022-12-13T02:12:22;-6.90;99.90
24384;DHT22;12504;52.870;8.798;2022-12-13T02:14:48;-6.90;99.90
24384;DHT22;12504;52.870;8.798;2022-12-13T02:31:55;-6.90;99.90
24384;DHT22;12504;52.870;8.798;2022-12-13T02:34:46;-6.90;99.90
24384;DHT22;12504;52.870;8.798;2022-12-13T02:39:56;-6.80;99.90
24384;DHT22;12504;52.870;8.798;2022-12-13T02:42:44;-6.80;99.90
24384;DHT22;12504;52.870;8.798;2022-12-13T02:45:22;-6.80;99.90
24384;DHT22;12504;52.870;8.798;2022-12-13T02:47:51;-6.70;99.90
24384;DHT22;12504;52.870;8.798;2022-12-13T02:50:21;-6.60;99.90
24384;DHT22;12504;52.870;8.798;2022-12-13T02:52:48;-6.60;99.90
24384;DHT22;12504;52.870;8.798;2022-12-13T02:55:15;-6.50;99.90
24384;DHT22;12504;52.870;8.798;2022-12-13T02:57:43;-6.40;99.90
24384;DHT22;12504;52.870;8.798;2022-12-13T03:00:15;-6.30;99.90
24384;DHT22;12504;52.870;8.798;2022-12-13T03:05:38;-6.10;99.90
24384;DHT22;12504;52.870;8.798;2022-12-13T03:08:41;-6.00;99.90
24384;DHT22;12504;52.870;8.798;2022-12-13T03:11:18;-5.90;99.90
24384;DHT22;12504;52.870;8.798;2022-12-13T03:13:54;-6.00;99.90
24384;DHT22;12504;52.870;8.798;2022-12-13T03:16:25;-5.90;99.90
24384;DHT22;12504;52.870;8.798;2022-12-13T03:18:57;-5.90;99.90
24384;DHT22;12504;52.870;8.798;2022-12-13T03:21:24;-5.90;99.90
24384;DHT22;12504;52.870;8.798;2022-12-13T03:23:50;-5.90;99.90
24384;DHT22;12504;52.870;8.798;2022-12-13T03:26:21;-5.90;99.90
24384;DHT22;12504;52.870;8.798;2022-12-13T03:28:49;-5.90;99.90
24384;DHT22;12504;52.870;8.798;2022-12-13T03:31:15;-5.80;99.90
24384;DHT22;12504;52.870;8.798;2022-12-13T03:33:40;-5.90;99.90
24384;DHT22;12504;52.870;8.798;2022-12-13T03:36:07;-5.90;99.90
24384;DHT22;12504;52.870;8.798;2022-12-13T03:38:33;-5.90;99.90
24384;DHT22;12504;52.870;8.798;2022-12-13T03:41:02;-5.90;99.90
24384;DHT22;12504;52.870;8.798;2022-12-13T03:43:28;-6.00;99.90
24384;DHT22;12504;52.870;8.798;2022-12-13T03:45:54;-6.10;99.90
24384;DHT22;12504;52.870;8.798;2022-12-13T03:48:21;-6.10;99.90
24384;DHT22;12504;52.870;8.798;2022-12-13T03:50:48;-6.20;99.90
24384;DHT22;12504;52.870;8.798;2022-12-13T03:53:14;-6.20;99.90
24384;DHT22;12504;52.870;8.798;2022-12-13T03:55:39;-6.30;99.90
24384;DHT22;12504;52.870;8.798;2022-12-13T03:58:05;-6.30;99.90
24384;DHT22;12504;52.870;8.798;2022-12-13T04:00:31;-6.30;99.90
24384;DHT22;12504;52.870;8.798;2022-12-13T04:02:56;-6.40;99.90
24384;DHT22;12504;52.870;8.798;2022-12-13T04:05:22;-6.40;99.90
24384;DHT22;12504;52.870;8.798;2022-12-13T04:07:48;-6.40;99.90
24384;DHT22;12504;52.870;8.798;2022-12-13T04:10:13;-6.40;99.90
24384;DHT22;12504;52.870;8.798;2022-12-13T04:12:39;-6.40;99.90
24384;DHT22;12504;52.870;8.798;2022-12-13T04:15:23;-6.50;99.90
24384;DHT22;12504;52.870;8.798;2022-12-13T04:17:49;-6.50;99.90
24384;DHT22;12504;52.870;8.798;2022-12-13T04:20:15;-6.50;99.90
24384;DHT22;12504;52.870;8.798;2022-12-13T04:22:40;-6.50;99.90
24384;DHT22;12504;52.870;8.798;2022-12-13T04:25:06;-6.50;99.90
24384;DHT22;12504;52.870;8.798;2022-12-13T04:27:32;-6.50;99.90
24384;DHT22;12504;52.870;8.798;2022-12-13T04:29:58;-6.50;99.90
24384;DHT22;12504;52.870;8.798;2022-12-13T04:32:24;-6.50;99.90
24384;DHT22;12504;52.870;8.798;2022-12-13T04:34:49;-6.50;99.90
24384;DHT22;12504;52.870;8.798;2022-12-13T04:37:15;-6.60;99.90
24384;DHT22;12504;52.870;8.798;2022-12-13T04:39:41;-6.60;99.90
24384;DHT22;12504;52.870;8.798;2022-12-13T04:42:07;-6.70;99.90
24384;DHT22;12504;52.870;8.798;2022-12-13T04:44:33;-6.70;99.90
24384;DHT22;12504;52.870;8.798;2022-12-13T04:46:58;-6.80;99.90
24384;DHT22;12504;52.870;8.798;2022-12-13T04:49:24;-6.80;99.90
24384;DHT22;12504;52.870;8.798;2022-12-13T04:51:50;-6.90;99.90
24384;DHT22;12504;52.870;8.798;2022-12-13T04:54:16;-6.90;99.90
24384;DHT22;12504;52.870;8.798;2022-12-13T04:56:41;-6.90;99.90
24384;DHT22;12504;52.870;8.798;2022-12-13T04:59:07;-7.00;99.90
24384;DHT22;12504;52.870;8.798;2022-12-13T05:01:33;-7.00;99.90
24384;DHT22;12504;52.870;8.798;2022-12-13T05:04:01;-7.00;99.90
24384;DHT22;12504;52.870;8.798;2022-12-13T05:06:27;-7.00;99.90
24384;DHT22;12504;52.870;8.798;2022-12-13T05:08:53;-7.00;99.90
24384;DHT22;12504;52.870;8.798;2022-12-13T05:11:20;-7.00;99.90
24384;DHT22;12504;52.870;8.798;2022-12-13T05:13:45;-7.00;99.90
24384;DHT22;12504;52.870;8.798;2022-12-13T05:16:11;-7.00;99.90
24384;DHT22;12504;52.870;8.798;2022-12-13T05:18:37;-6.90;99.90
24384;DHT22;12504;52.870;8.798;2022-12-13T05:21:05;-6.90;99.90
24384;DHT22;12504;52.870;8.798;2022-12-13T05:23:32;-6.70;99.90
24384;DHT22;12504;52.870;8.798;2022-12-13T05:25:58;-6.50;99.90
24384;DHT22;12504;52.870;8.798;2022-12-13T05:28:25;-6.20;99.90
24384;DHT22;12504;52.870;8.798;2022-12-13T05:30:54;-6.00;99.90
24384;DHT22;12504;52.870;8.798;2022-12-13T05:33:21;-5.80;99.90
24384;DHT22;12504;52.870;8.798;2022-12-13T05:35:47;-5.60;99.90
24384;DHT22;12504;52.870;8.798;2022-12-13T05:38:13;-5.50;99.90
24384;DHT22;12504;52.870;8.798;2022-12-13T05:40:38;-5.40;99.90
24384;DHT22;12504;52.870;8.798;2022-12-13T05:43:04;-5.40;99.90
24384;DHT22;12504;52.870;8.798;2022-12-13T05:45:31;-5.30;99.90
24384;DHT22;12504;52.870;8.798;2022-12-13T05:47:58;-5.20;99.90
24384;DHT22;12504;52.870;8.798;2022-12-13T05:50:24;-5.10;99.90
24384;DHT22;12504;52.870;8.798;2022-12-13T05:52:50;-5.10;99.90
24384;DHT22;12504;52.870;8.798;2022-12-13T05:55:16;-5.00;99.90
24384;DHT22;12504;52.870;8.798;2022-12-13T05:57:42;-5.00;99.90
24384;DHT22;12504;52.870;8.798;2022-12-13T06:00:09;-5.00;99.90
24384;DHT22;12504;52.870;8.798;2022-12-13T06:02:39;-4.90;99.90
24384;DHT22;12504;52.870;8.798;2022-12-13T06:05:05;-4.90;99.90
24384;DHT22;12504;52.870;8.798;2022-12-13T06:07:31;-4.90;99.90
24384;DHT22;12504;52.870;8.798;2022-12-13T06:09:57;-4.90;99.90
24384;DHT22;12504;52.870;8.798;2022-12-13T06:12:24;-4.80;99.90
24384;DHT22;12504;52.870;8.798;2022-12-13T06:14:49;-4.90;99.90
24384;DHT22;12504;52.870;8.798;2022-12-13T06:17:15;-4.90;99.90
24384;DHT22;12504;52.870;8.798;2022-12-13T06:19:41;-5.00;99.90
24384;DHT22;12504;52.870;8.798;2022-12-13T06:22:07;-5.10;99.90
24384;DHT22;12504;52.870;8.798;2022-12-13T06:24:32;-5.20;99.90
24384;DHT22;12504;52.870;8.798;2022-12-13T06:26:58;-5.10;99.90
24384;DHT22;12504;52.870;8.798;2022-12-13T06:29:24;-5.10;99.90
24384;DHT22;12504;52.870;8.798;2022-12-13T06:31:59;-5.00;99.90
24384;DHT22;12504;52.870;8.798;2022-12-13T06:34:26;-4.90;99.90
24384;DHT22;12504;52.870;8.798;2022-12-13T06:36:51;-4.80;99.90
24384;DHT22;12504;52.870;8.798;2022-12-13T06:39:17;-4.70;99.90
24384;DHT22;12504;52.870;8.798;2022-12-13T06:41:43;-4.70;99.90
24384;DHT22;12504;52.870;8.798;2022-12-13T06:44:09;-4.70;99.90
24384;DHT22;12504;52.870;8.798;2022-12-13T06:46:35;-4.60;99.90
24384;DHT22;12504;52.870;8.798;2022-12-13T06:49:01;-4.60;99.90
24384;DHT22;12504;52.870;8.798;2022-12-13T06:51:27;-4.50;99.90
24384;DHT22;12504;52.870;8.798;2022-12-13T06:53:53;-4.40;99.90
24384;DHT22;12504;52.870;8.798;2022-12-13T06:56:19;-4.40;99.90
24384;DHT22;12504;52.870;8.798;2022-12-13T06:58:45;-4.30;99.90
24384;DHT22;12504;52.870;8.798;2022-12-13T07:01:16;-4.30;99.90
24384;DHT22;12504;52.870;8.798;2022-12-13T07:03:43;-4.30;99.90
24384;DHT22;12504;52.870;8.798;2022-12-13T07:06:17;-4.30;99.90
24384;DHT22;12504;52.870;8.798;2022-12-13T07:08:47;-4.30;99.90
24384;DHT22;12504;52.870;8.798;2022-12-13T07:11:14;-4.30;99.90
24384;DHT22;12504;52.870;8.798;2022-12-13T07:13:40;-4.30;99.90
24384;DHT22;12504;52.870;8.798;2022-12-13T07:16:07;-4.20;99.90
24384;DHT22;12504;52.870;8.798;2022-12-13T07:18:33;-4.20;99.90
24384;DHT22;12504;52.870;8.798;2022-12-13T07:20:58;-4.20;99.90
24384;DHT22;12504;52.870;8.798;2022-12-13T07:23:24;-4.10;99.90
24384;DHT22;12504;52.870;8.798;2022-12-13T07:25:53;-4.00;99.90
24384;DHT22;12504;52.870;8.798;2022-12-13T07:28:20;-4.00;99.90
24384;DHT22;12504;52.870;8.798;2022-12-13T07:30:47;-4.00;99.90
24384;DHT22;12504;52.870;8.798;2022-12-13T07:33:13;-4.10;99.90
24384;DHT22;12504;52.870;8.798;2022-12-13T07:35:39;-4.10;99.90
24384;DHT22;12504;52.870;8.798;2022-12-13T07:38:07;-4.10;99.90
24384;DHT22;12504;52.870;8.798;2022-12-13T07:40:34;-4.00;99.90
24384;DHT22;12504;52.870;8.798;2022-12-13T07:42:59;-3.90;99.90
24384;DHT22;12504;52.870;8.798;2022-12-13T07:45:25;-3.90;99.90
24384;DHT22;12504;52.870;8.798;2022-12-13T07:47:51;-3.80;99.90
24384;DHT22;12504;52.870;8.798;2022-12-13T07:50:17;-3.80;99.90
24384;DHT22;12504;52.870;8.798;2022-12-13T07:52:47;-3.80;99.90
24384;DHT22;12504;52.870;8.798;2022-12-13T07:55:13;-3.80;99.90
24384;DHT22;12504;52.870;8.798;2022-12-13T07:57:39;-3.80;99.90
24384;DHT22;12504;52.870;8.798;2022-12-13T08:00:05;-3.80;99.90
24384;DHT22;12504;52.870;8.798;2022-12-13T08:02:39;-3.90;99.90
24384;DHT22;12504;52.870;8.798;2022-12-13T08:05:06;-4.00;99.90
24384;DHT22;12504;52.870;8.798;2022-12-13T08:07:32;-4.00;99.90
24384;DHT22;12504;52.870;8.798;2022-12-13T08:09:58;-4.10;99.90
24384;DHT22;12504;52.870;8.798;2022-12-13T08:12:23;-4.30;99.90
24384;DHT22;12504;52.870;8.798;2022-12-13T08:14:49;-4.40;99.90
24384;DHT22;12504;52.870;8.798;2022-12-13T08:17:15;-4.50;99.90
24384;DHT22;12504;52.870;8.798;2022-12-13T08:19:41;-4.60;99.90
24384;DHT22;12504;52.870;8.798;2022-12-13T08:22:10;-4.70;99.90
24384;DHT22;12504;52.870;8.798;2022-12-13T08:24:36;-4.80;99.90
24384;DHT22;12504;52.870;8.798;2022-12-13T08:27:02;-4.80;99.90
24384;DHT22;12504;52.870;8.798;2022-12-13T08:29:32;-4.80;99.90
24384;DHT22;12504;52.870;8.798;2022-12-13T08:31:59;-4.80;99.90
24384;DHT22;12504;52.870;8.798;2022-12-13T08:34:24;-4.80;99.90
24384;DHT22;12504;52.870;8.798;2022-12-13T08:36:50;-4.80;99.90
24384;DHT22;12504;52.870;8.798;2022-12-13T08:39:16;-4.70;99.90
24384;DHT22;12504;52.870;8.798;2022-12-13T08:41:42;-4.80;99.90
24384;DHT22;12504;52.870;8.798;2022-12-13T08:44:08;-4.70;99.90
24384;DHT22;12504;52.870;8.798;2022-12-13T08:46:34;-4.80;99.90
24384;DHT22;12504;52.870;8.798;2022-12-13T08:48:59;-4.70;99.90
24384;DHT22;12504;52.870;8.798;2022-12-13T08:51:25;-4.70;99.90
24384;DHT22;12504;52.870;8.798;2022-12-13T08:53:51;-4.60;99.90
24384;DHT22;12504;52.870;8.798;2022-12-13T08:56:17;-4.50;99.90
24384;DHT22;12504;52.870;8.798;2022-12-13T08:58:49;-4.50;99.90
24384;DHT22;12504;52.870;8.798;2022-12-13T09:01:17;-4.50;99.90
24384;DHT22;12504;52.870;8.798;2022-12-13T09:03:43;-4.40;99.90
24384;DHT22;12504;52.870;8.798;2022-12-13T09:06:14;-4.40;99.90
24384;DHT22;12504;52.870;8.798;2022-12-13T09:08:41;-4.40;99.90
24384;DHT22;12504;52.870;8.798;2022-12-13T09:11:08;-4.40;99.90
24384;DHT22;12504;52.870;8.798;2022-12-13T09:13:36;-4.40;99.90
24384;DHT22;12504;52.870;8.798;2022-12-13T09:16:07;-4.40;99.90
24384;DHT22;12504;52.870;8.798;2022-12-13T09:18:34;-4.40;99.90
24384;DHT22;12504;52.870;8.798;2022-12-13T09:21:08;-4.40;99.90
24384;DHT22;12504;52.870;8.798;2022-12-13T09:23:35;-4.30;99.90
24384;DHT22;12504;52.870;8.798;2022-12-13T09:26:01;-4.30;99.90
24384;DHT22;12504;52.870;8.798;2022-12-13T09:28:28;-4.30;99.90
24384;DHT22;12504;52.870;8.798;2022-12-13T09:30:55;-4.30;99.90
24384;DHT22;12504;52.870;8.798;2022-12-13T09:33:21;-4.20;99.90
24384;DHT22;12504;52.870;8.798;2022-12-13T09:35:47;-4.10;99.90
24384;DHT22;12504;52.870;8.798;2022-12-13T09:38:13;-4.10;99.90
24384;DHT22;12504;52.870;8.798;2022-12-13T09:40:40;-4.00;99.90
24384;DHT22;12504;52.870;8.798;2022-12-13T09:43:12;-3.90;99.90
24384;DHT22;12504;52.870;8.798;2022-12-13T09:45:43;-3.90;99.90
24384;DHT22;12504;52.870;8.798;2022-12-13T09:48:15;-3.80;99.90
24384;DHT22;12504;52.870;8.798;2022-12-13T09:50:43;-3.80;99.90
24384;DHT22;12504;52.870;8.798;2022-12-13T09:53:13;-3.80;99.90
24384;DHT22;12504;52.870;8.798;2022-12-13T09:55:46;-3.70;99.90
24384;DHT22;12504;52.870;8.798;2022-12-13T09:58:29;-3.70;99.90
24384;DHT22;12504;52.870;8.798;2022-12-13T10:00:57;-3.60;99.90
24384;DHT22;12504;52.870;8.798;2022-12-13T10:03:24;-3.50;99.90
24384;DHT22;12504;52.870;8.798;2022-12-13T10:06:07;-3.50;99.90
24384;DHT22;12504;52.870;8.798;2022-12-13T10:08:41;-3.50;99.90
24384;DHT22;12504;52.870;8.798;2022-12-13T10:11:17;-3.40;99.90
24384;DHT22;12504;52.870;8.798;2022-12-13T10:14:05;-3.40;99.90
24384;DHT22;12504;52.870;8.798;2022-12-13T10:16:38;-3.30;99.90
24384;DHT22;12504;52.870;8.798;2022-12-13T10:22:00;-3.20;99.90
24384;DHT22;12504;52.870;8.798;2022-12-13T10:27:16;-3.00;99.90
24384;DHT22;12504;52.870;8.798;2022-12-13T10:29:58;-3.00;99.90
24384;DHT22;12504;52.870;8.798;2022-12-13T10:32:24;-2.90;99.90
24384;DHT22;12504;52.870;8.798;2022-12-13T10:34:50;-2.90;99.90
24384;DHT22;12504;52.870;8.798;2022-12-13T10:37:28;-2.90;99.90
24384;DHT22;12504;52.870;8.798;2022-12-13T10:39:55;-2.80;99.90
24384;DHT22;12504;52.870;8.798;2022-12-13T10:42:21;-2.70;99.90
24384;DHT22;12504;52.870;8.798;2022-12-13T10:44:47;-2.50;99.90
24384;DHT22;12504;52.870;8.798;2022-12-13T10:47:22;-2.50;99.90
24384;DHT22;12504;52.870;8.798;2022-12-13T10:49:56;-2.40;99.90
24384;DHT22;12504;52.870;8.798;2022-12-13T10:52:34;-2.40;99.90
24384;DHT22;12504;52.870;8.798;2022-12-13T10:55:26;-2.30;99.90
24384;DHT22;12504;52.870;8.798;2022-12-13T10:57:52;-2.20;99.90
24384;DHT22;12504;52.870;8.798;2022-12-13T11:00:41;-2.10;99.90
24384;DHT22;12504;52.870;8.798;2022-12-13T11:03:30;-2.10;99.90
24384;DHT22;12504;52.870;8.798;2022-12-13T11:06:15;-2.00;99.90
24384;DHT22;12504;52.870;8.798;2022-12-13T11:08:42;-1.90;99.90
24384;DHT22;12504;52.870;8.798;2022-12-13T11:11:09;-1.90;99.90
24384;DHT22;12504;52.870;8.798;2022-12-13T11:13:51;-1.90;99.90
24384;DHT22;12504;52.870;8.798;2022-12-13T11:16:26;-1.80;99.90
24384;DHT22;12504;52.870;8.798;2022-12-13T11:19:04;-1.80;99.90
24384;DHT22;12504;52.870;8.798;2022-12-13T11:21:33;-1.70;99.90
24384;DHT22;12504;52.870;8.798;2022-12-13T11:24:02;-1.50;99.90
24384;DHT22;12504;52.870;8.798;2022-12-13T11:26:32;-1.40;99.90
24384;DHT22;12504;52.870;8.798;2022-12-13T11:29:12;-0.70;99.90
24384;DHT22;12504;52.870;8.798;2022-12-13T11:32:21;0.40;99.90
24384;DHT22;12504;52.870;8.798;2022-12-13T11:40:27;4.10;99.90
24384;DHT22;12504;52.870;8.798;2022-12-13T11:45:39;4.80;99.90
24384;DHT22;12504;52.870;8.798;2022-12-13T11:50:47;5.00;89.20
24384;DHT22;12504;52.870;8.798;2022-12-13T11:53:27;5.20;67.40
24384;DHT22;12504;52.870;8.798;2022-12-13T11:59:21;5.90;60.70
24384;DHT22;12504;52.870;8.798;2022-12-13T12:01:54;6.10;51.20
24384;DHT22;12504;52.870;8.798;2022-12-13T12:04:37;5.90;13.50
24384;DHT22;12504;52.870;8.798;2022-12-13T12:07:15;5.40;59.30
24384;DHT22;12504;52.870;8.798;2022-12-13T12:09:48;5.20;55.00
24384;DHT22;12504;52.870;8.798;2022-12-13T12:12:33;4.60;48.50
24384;DHT22;12504;52.870;8.798;2022-12-13T12:15:18;4.10;77.50
24384;DHT22;12504;52.870;8.798;2022-12-13T12:17:46;3.20;90.10
24384;DHT22;12504;52.870;8.798;2022-12-13T12:20:14;2.30;99.90
24384;DHT22;12504;52.870;8.798;2022-12-13T12:22:53;1.90;99.90
24384;DHT22;12504;52.870;8.798;2022-12-13T12:25:45;1.30;99.90
24384;DHT22;12504;52.870;8.798;2022-12-13T12:28:40;1.40;99.90
24384;DHT22;12504;52.870;8.798;2022-12-13T12:31:28;1.30;99.90
24384;DHT22;12504;52.870;8.798;2022-12-13T12:33:59;1.30;99.90
24384;DHT22;12504;52.870;8.798;2022-12-13T12:40:00;1.00;99.90
24384;DHT22;12504;52.870;8.798;2022-12-13T12:42:44;0.80;99.90
24384;DHT22;12504;52.870;8.798;2022-12-13T12:48:27;0.60;99.90
24384;DHT22;12504;52.870;8.798;2022-12-13T12:53:41;0.70;99.90
24384;DHT22;12504;52.870;8.798;2022-12-13T12:56:30;0.60;99.90
24384;DHT22;12504;52.870;8.798;2022-12-13T12:59:19;0.50;99.90
24384;DHT22;12504;52.870;8.798;2022-12-13T13:01:52;0.40;99.90
24384;DHT22;12504;52.870;8.798;2022-12-13T13:04:28;0.40;99.90
24384;DHT22;12504;52.870;8.798;2022-12-13T13:07:09;0.30;99.90
24384;DHT22;12504;52.870;8.798;2022-12-13T13:09:36;0.20;99.90
24384;DHT22;12504;52.870;8.798;2022-12-13T13:12:04;0.30;99.90
24384;DHT22;12504;52.870;8.798;2022-12-13T13:14:35;0.40;99.90
24384;DHT22;12504;52.870;8.798;2022-12-13T13:19:46;0.30;99.90
24384;DHT22;12504;52.870;8.798;2022-12-13T13:22:31;0.10;99.90
24384;DHT22;12504;52.870;8.798;2022-12-13T13:25:20;0.20;99.90
24384;DHT22;12504;52.870;8.798;2022-12-13T13:27:47;0.20;99.90
24384;DHT22;12504;52.870;8.798;2022-12-13T13:30:18;0.10;99.90
24384;DHT22;12504;52.870;8.798;2022-12-13T13:32:45;-0.10;99.90
24384;DHT22;12504;52.870;8.798;2022-12-13T13:38:02;-0.30;99.90
24384;DHT22;12504;52.870;8.798;2022-12-13T13:40:34;-0.40;99.90
24384;DHT22;12504;52.870;8.798;2022-12-13T13:56:55;-0.50;99.90
24384;DHT22;12504;52.870;8.798;2022-12-13T14:08:32;-0.40;99.90
24384;DHT22;12504;52.870;8.798;2022-12-13T14:25:32;-0.50;99.90
24384;DHT22;12504;52.870;8.798;2022-12-13T14:28:16;-0.50;99.90
24384;DHT22;12504;52.870;8.798;2022-12-13T14:30:44;-0.60;99.90
24384;DHT22;12504;52.870;8.798;2022-12-13T14:33:22;-0.80;99.90
24384;DHT22;12504;52.870;8.798;2022-12-13T14:36:00;-0.90;99.90
24384;DHT22;12504;52.870;8.798;2022-12-13T14:38:30;-1.10;99.90
24384;DHT22;12504;52.870;8.798;2022-12-13T14:41:01;-1.20;99.90
24384;DHT22;12504;52.870;8.798;2022-12-13T14:43:28;-1.40;99.90
24384;DHT22;12504;52.870;8.798;2022-12-13T14:45:56;-1.50;99.90
24384;DHT22;12504;52.870;8.798;2022-12-13T14:48:22;-1.60;99.90
24384;DHT22;12504;52.870;8.798;2022-12-13T14:50:48;-1.70;99.90
24384;DHT22;12504;52.870;8.798;2022-12-13T14:56:12;-2.00;99.90
24384;DHT22;12504;52.870;8.798;2022-12-13T14:58:39;-2.00;99.90
24384;DHT22;12504;52.870;8.798;2022-12-13T15:01:43;-2.20;99.90
24384;DHT22;12504;52.870;8.798;2022-12-13T15:04:25;-2.30;99.90
24384;DHT22;12504;52.870;8.798;2022-12-13T15:07:02;-2.40;99.90
24384;DHT22;12504;52.870;8.798;2022-12-13T15:09:29;-2.50;99.90
24384;DHT22;12504;52.870;8.798;2022-12-13T15:11:56;-2.60;99.90
24384;DHT22;12504;52.870;8.798;2022-12-13T15:14:23;-2.60;99.90
24384;DHT22;12504;52.870;8.798;2022-12-13T15:16:54;-2.70;99.90
24384;DHT22;12504;52.870;8.798;2022-12-13T15:19:25;-2.70;99.90
24384;DHT22;12504;52.870;8.798;2022-12-13T15:21:59;-2.80;99.90
24384;DHT22;12504;52.870;8.798;2022-12-13T15:24:35;-2.80;99.90
24384;DHT22;12504;52.870;8.798;2022-12-13T15:27:06;-2.80;99.90
24384;DHT22;12504;52.870;8.798;2022-12-13T15:29:33;-2.90;99.90
24384;DHT22;12504;52.870;8.798;2022-12-13T15:32:01;-2.90;99.90
24384;DHT22;12504;52.870;8.798;2022-12-13T15:36:54;-3.00;99.90
24384;DHT22;12504;52.870;8.798;2022-12-13T15:39:21;-3.10;99.90
24384;DHT22;12504;52.870;8.798;2022-12-13T15:41:49;-3.10;99.90
24384;DHT22;12504;52.870;8.798;2022-12-13T15:44:26;-3.20;99.90
24384;DHT22;12504;52.870;8.798;2022-12-13T15:47:15;-3.30;99.90
24384;DHT22;12504;52.870;8.798;2022-12-13T15:49:44;-3.30;99.90
24384;DHT22;12504;52.870;8.798;2022-12-13T15:54:39;-3.40;99.90
24384;DHT22;12504;52.870;8.798;2022-12-13T15:57:55;-3.40;99.90
24384;DHT22;12504;52.870;8.798;2022-12-13T16:03:21;-3.50;99.90
24384;DHT22;12504;52.870;8.798;2022-12-13T16:05:51;-3.60;99.90
24384;DHT22;12504;52.870;8.798;2022-12-13T16:10:51;-3.70;99.90
24384;DHT22;12504;52.870;8.798;2022-12-13T16:13:35;-3.80;99.90
24384;DHT22;12504;52.870;8.798;2022-12-13T16:16:24;-3.80;99.90
24384;DHT22;12504;52.870;8.798;2022-12-13T16:18:54;-3.90;99.90
24384;DHT22;12504;52.870;8.798;2022-12-13T16:21:21;-3.90;99.90
24384;DHT22;12504;52.870;8.798;2022-12-13T16:23:47;-3.90;99.90
24384;DHT22;12504;52.870;8.798;2022-12-13T16:26:14;-3.90;99.90
24384;DHT22;12504;52.870;8.798;2022-12-13T16:28:40;-3.90;99.90
24384;DHT22;12504;52.870;8.798;2022-12-13T16:31:33;-3.90;99.90
24384;DHT22;12504;52.870;8.798;2022-12-13T16:34:02;-3.90;99.90
24384;DHT22;12504;52.870;8.798;2022-12-13T16:36:28;-4.00;99.90
24384;DHT22;12504;52.870;8.798;2022-12-13T16:38:54;-4.00;99.90
24384;DHT22;12504;52.870;8.798;2022-12-13T16:41:20;-4.10;99.90
24384;DHT22;12504;52.870;8.798;2022-12-13T16:43:52;-4.10;99.90
24384;DHT22;12504;52.870;8.798;2022-12-13T16:46:18;-4.20;99.90
24384;DHT22;12504;52.870;8.798;2022-12-13T16:48:44;-4.20;99.90
24384;DHT22;12504;52.870;8.798;2022-12-13T16:51:10;-4.30;99.90
24384;DHT22;12504;52.870;8.798;2022-12-13T16:53:35;-4.40;99.90
24384;DHT22;12504;52.870;8.798;2022-12-13T16:56:01;-4.40;99.90
24384;DHT22;12504;52.870;8.798;2022-12-13T16:58:27;-4.40;99.90
24384;DHT22;12504;52.870;8.798;2022-12-13T17:00:53;-4.40;99.90
24384;DHT22;12504;52.870;8.798;2022-12-13T17:03:20;-4.40;99.90
24384;DHT22;12504;52.870;8.798;2022-12-13T17:05:46;-4.40;99.90
24384;DHT22;12504;52.870;8.798;2022-12-13T17:08:13;-4.40;99.90
24384;DHT22;12504;52.870;8.798;2022-12-13T17:10:41;-4.40;99.90
24384;DHT22;12504;52.870;8.798;2022-12-13T17:13:08;-4.40;99.90
24384;DHT22;12504;52.870;8.798;2022-12-13T17:15:34;-4.40;99.90
24384;DHT22;12504;52.870;8.798;2022-12-13T17:18:00;-4.40;99.90
24384;DHT22;12504;52.870;8.798;2022-12-13T17:20:26;-4.50;99.90
24384;DHT22;12504;52.870;8.798;2022-12-13T17:22:52;-4.50;99.90
24384;DHT22;12504;52.870;8.798;2022-12-13T17:25:18;-4.60;99.90
24384;DHT22;12504;52.870;8.798;2022-12-13T17:27:43;-4.60;99.90
24384;DHT22;12504;52.870;8.798;2022-12-13T17:30:14;-4.70;99.90
24384;DHT22;12504;52.870;8.798;2022-12-13T17:32:40;-4.70;99.90
24384;DHT22;12504;52.870;8.798;2022-12-13T17:35:06;-4.70;99.90
24384;DHT22;12504;52.870;8.798;2022-12-13T17:37:32;-4.80;99.90
24384;DHT22;12504;52.870;8.798;2022-12-13T17:39:58;-4.80;99.90